Time;durP1;ratioP1;P1;durP2;ratioP2;P2;SDS_P1;SDS_P2;PMS_P1;PMS_P2;Temp;Humidity;BMP_temperature;BMP_pressure;BME280_temperature;BME280_humidity;BME280_pressure;Samples;Min_cycle;Max_cycle;Signal;HPM_P1;HPM_P2
2020/12/17 00:01:44;;;;;;;1.60;1.50;;;;;;;;;;5070378;28;20038;-85
2020/12/17 00:04:10;;;;;;;2.53;1.70;;;;;;;;;;5069648;28;20323;-85
2020/12/17 00:06:36;;;;;;;2.05;1.52;;;;;;;;;;5068887;28;20048;-84
2020/12/17 00:09:03;;;;;;;2.80;1.70;;;;;;;;;;5070171;28;20032;-85
2020/12/17 00:11:30;;;;;;;1.42;1.33;;;;;;;;;;5070261;28;20465;-85
2020/12/17 00:13:56;;;;;;;2.50;1.90;;;;;;;;;;5069941;28;20376;-85
2020/12/17 00:16:22;;;;;;;1.40;1.30;;;;;;;;;;5069075;28;20029;-85
2020/12/17 00:18:48;;;;;;;2.47;1.63;;;;;;;;;;5070456;28;20032;-85
2020/12/17 00:21:14;;;;;;;1.73;1.55;;;;;;;;;;5069217;28;20032;-84
2020/12/17 00:23:40;;;;;;;1.98;1.30;;;;;;;;;;5069882;28;20086;-84
2020/12/17 00:26:06;;;;;;;1.23;1.13;;;;;;;;;;5069256;28;20021;-84
2020/12/17 00:28:32;;;;;;;2.47;1.27;;;;;;;;;;5051693;28;20124;-85
2020/12/17 00:30:58;;;;;;;2.00;1.33;;;;;;;;;;5070258;28;20029;-85
2020/12/17 00:33:24;;;;;;;2.05;1.45;;;;;;;;;;5051455;28;20409;-85
2020/12/17 00:35:50;;;;;;;1.88;1.05;;;;;;;;;;5067742;28;20056;-84
2020/12/17 00:38:16;;;;;;;2.00;1.45;;;;;;;;;;5069345;28;20024;-85
2020/12/17 00:40:42;;;;;;;2.00;1.55;;;;;;;;;;5070363;28;20056;-85
2020/12/17 00:43:08;;;;;;;1.23;0.93;;;;;;;;;;5069760;28;20039;-84
2020/12/17 00:45:34;;;;;;;1.90;1.75;;;;;;;;;;5069449;28;20604;-85
2020/12/17 00:48:01;;;;;;;3.35;1.42;;;;;;;;;;5070325;28;20020;-85
2020/12/17 00:50:27;;;;;;;2.22;2.03;;;;;;;;;;5070509;28;20056;-85
2020/12/17 00:52:53;;;;;;;1.42;1.10;;;;;;;;;;5070246;28;20025;-85
2020/12/17 00:55:19;;;;;;;1.70;1.60;;;;;;;;;;5069677;28;20025;-85
2020/12/17 00:57:45;;;;;;;1.88;1.08;;;;;;;;;;5070344;28;20067;-85
2020/12/17 01:00:11;;;;;;;4.20;2.22;;;;;;;;;;5070301;28;20414;-85
2020/12/17 01:02:37;;;;;;;3.08;1.90;;;;;;;;;;5069904;28;20047;-85
2020/12/17 01:05:07;;;;;;;2.58;1.77;;;;;;;;;;5068106;28;20021;-85
2020/12/17 01:07:33;;;;;;;1.63;1.52;;;;;;;;;;5071072;28;20016;-85
2020/12/17 01:09:59;;;;;;;1.48;1.17;;;;;;;;;;5071225;28;20029;-85
2020/12/17 01:12:25;;;;;;;0.85;0.85;;;;;;;;;;5070521;28;20103;-85
2020/12/17 01:14:51;;;;;;;1.98;1.35;;;;;;;;;;5070414;28;20025;-85
2020/12/17 01:17:17;;;;;;;1.08;1.00;;;;;;;;;;5069972;28;20103;-85
2020/12/17 01:19:44;;;;;;;2.63;2.05;;;;;;;;;;5071050;28;20051;-85
2020/12/17 01:22:10;;;;;;;1.95;1.23;;;;;;;;;;5070031;28;20041;-85
2020/12/17 01:24:36;;;;;;;1.77;1.27;;;;;;;;;;5069993;28;20029;-85
2020/12/17 01:27:02;;;;;;;0.85;0.85;;;;;;;;;;5069702;28;20103;-85
2020/12/17 01:29:28;;;;;;;2.28;1.85;;;;;;;;;;5069814;28;20054;-85
2020/12/17 01:31:59;;;;;;;1.55;0.88;;;;;;;;;;5069245;28;20112;-85
2020/12/17 01:34:26;;;;;;;1.17;1.08;;;;;;;;;;5072496;28;20036;-85
2020/12/17 01:36:55;;;;;;;2.58;1.25;;;;;;;;;;5072223;28;20047;-85
2020/12/17 01:39:22;;;;;;;1.67;1.58;;;;;;;;;;5073421;28;20032;-85
2020/12/17 01:41:48;;;;;;;4.47;1.40;;;;;;;;;;5073226;28;20029;-85
2020/12/17 01:44:15;;;;;;;1.75;1.10;;;;;;;;;;5072097;28;20721;-84
2020/12/17 01:46:41;;;;;;;3.28;1.40;;;;;;;;;;5072603;28;20028;-84
2020/12/17 01:49:07;;;;;;;1.17;0.98;;;;;;;;;;5073321;28;20036;-84
2020/12/17 01:51:33;;;;;;;1.52;1.15;;;;;;;;;;5073291;28;20028;-85
2020/12/17 01:54:00;;;;;;;0.75;0.73;;;;;;;;;;5072990;28;20024;-85
2020/12/17 01:56:28;;;;;;;2.10;1.05;;;;;;;;;;5071801;28;20028;-85
2020/12/17 01:59:17;;;;;;;1.95;1.45;;;;;;;;;;5073014;28;20032;-85
2020/12/17 02:01:46;;;;;;;0.80;0.80;;;;;;;;;;5062153;28;20051;-85
2020/12/17 02:04:12;;;;;;;1.85;1.17;;;;;;;;;;5071719;28;20059;-85
2020/12/17 02:06:38;;;;;;;1.60;1.00;;;;;;;;;;5071673;28;20025;-85
2020/12/17 02:09:04;;;;;;;0.90;0.85;;;;;;;;;;5072326;28;20023;-85
2020/12/17 02:11:30;;;;;;;1.05;0.93;;;;;;;;;;5072488;28;20108;-85
2020/12/17 02:13:56;;;;;;;3.03;1.20;;;;;;;;;;5072833;28;20032;-84
2020/12/17 02:16:23;;;;;;;1.40;1.10;;;;;;;;;;5071547;28;20103;-84
2020/12/17 02:18:52;;;;;;;1.48;1.30;;;;;;;;;;5072714;28;20388;-85
2020/12/17 02:21:19;;;;;;;1.08;1.00;;;;;;;;;;5072151;28;20021;-85
2020/12/17 02:23:45;;;;;;;1.27;1.00;;;;;;;;;;5072407;28;20028;-85
2020/12/17 02:26:11;;;;;;;2.35;1.10;;;;;;;;;;5071830;28;20025;-85
2020/12/17 02:28:38;;;;;;;0.73;0.73;;;;;;;;;;5072321;28;20490;-85
2020/12/17 02:31:04;;;;;;;3.20;0.98;;;;;;;;;;5072864;28;20075;-85
2020/12/17 02:33:30;;;;;;;1.15;1.10;;;;;;;;;;5071611;28;20036;-85
2020/12/17 02:35:56;;;;;;;2.42;1.98;;;;;;;;;;5070665;28;20055;-84
2020/12/17 02:38:23;;;;;;;1.55;1.45;;;;;;;;;;5072228;28;20107;-85
2020/12/17 02:40:49;;;;;;;1.10;0.95;;;;;;;;;;5072300;28;20020;-83
2020/12/17 02:43:15;;;;;;;2.72;1.00;;;;;;;;;;5070968;28;20564;-85
2020/12/17 02:45:49;;;;;;;1.65;1.38;;;;;;;;;;5071565;28;20032;-85
2020/12/17 02:48:15;;;;;;;2.35;1.50;;;;;;;;;;5071614;28;20025;-84
2020/12/17 02:50:41;;;;;;;2.25;1.67;;;;;;;;;;5072514;28;20032;-85
2020/12/17 02:53:08;;;;;;;2.25;1.23;;;;;;;;;;5071150;28;20106;-84
2020/12/17 02:55:34;;;;;;;5.50;1.95;;;;;;;;;;5071535;28;20031;-85
2020/12/17 02:58:00;;;;;;;4.88;1.80;;;;;;;;;;5071823;28;20025;-85
2020/12/17 03:00:27;;;;;;;2.67;1.95;;;;;;;;;;5071826;28;20510;-85
2020/12/17 03:02:53;;;;;;;2.00;1.13;;;;;;;;;;5071342;28;20029;-85
2020/12/17 03:05:19;;;;;;;2.10;1.65;;;;;;;;;;5069209;28;20031;-85
2020/12/17 03:07:45;;;;;;;1.60;0.90;;;;;;;;;;5071581;28;20490;-85
2020/12/17 03:10:12;;;;;;;1.27;1.05;;;;;;;;;;5071469;28;20054;-84
2020/12/17 03:12:42;;;;;;;1.05;0.85;;;;;;;;;;5071676;28;20025;-85
2020/12/17 03:15:09;;;;;;;1.92;1.48;;;;;;;;;;5070513;28;20029;-84
2020/12/17 03:17:35;;;;;;;1.13;0.95;;;;;;;;;;5071072;28;20158;-85
2020/12/17 03:20:01;;;;;;;3.35;1.73;;;;;;;;;;5053600;28;20025;-85
2020/12/17 03:22:27;;;;;;;2.00;1.83;;;;;;;;;;5070848;28;20500;-85
2020/12/17 03:24:54;;;;;;;1.67;0.80;;;;;;;;;;5070456;28;20108;-85
2020/12/17 03:27:20;;;;;;;1.50;1.27;;;;;;;;;;5070809;28;20040;-85
2020/12/17 03:29:46;;;;;;;1.45;1.13;;;;;;;;;;5070111;28;20111;-85
2020/12/17 03:32:12;;;;;;;0.73;0.73;;;;;;;;;;5070680;28;20100;-84
2020/12/17 03:34:38;;;;;;;1.55;1.45;;;;;;;;;;5069851;28;20028;-85
2020/12/17 03:37:04;;;;;;;2.53;1.63;;;;;;;;;;5070564;28;20055;-84
2020/12/17 03:39:30;;;;;;;1.60;1.15;;;;;;;;;;5071400;28;20043;-85
2020/12/17 03:41:56;;;;;;;1.42;1.33;;;;;;;;;;5071012;28;20028;-85
2020/12/17 03:44:22;;;;;;;1.38;0.85;;;;;;;;;;5070374;28;20039;-84
2020/12/17 03:46:48;;;;;;;2.42;1.48;;;;;;;;;;5070802;28;20025;-84
2020/12/17 03:49:14;;;;;;;0.85;0.82;;;;;;;;;;5070700;28;20036;-85
2020/12/17 03:51:41;;;;;;;0.90;0.90;;;;;;;;;;5071052;28;20032;-85
2020/12/17 03:54:07;;;;;;;1.40;1.15;;;;;;;;;;5070270;28;20025;-85
2020/12/17 03:56:33;;;;;;;2.03;1.83;;;;;;;;;;5069521;28;20115;-85
2020/12/17 03:58:59;;;;;;;1.83;1.40;;;;;;;;;;5070584;28;20514;-85
2020/12/17 04:01:25;;;;;;;1.38;1.02;;;;;;;;;;5070465;28;20623;-85
2020/12/17 04:03:51;;;;;;;1.73;1.13;;;;;;;;;;5069945;28;20020;-84
2020/12/17 04:06:17;;;;;;;1.35;1.25;;;;;;;;;;5068572;28;20028;-85
2020/12/17 04:08:43;;;;;;;1.30;0.88;;;;;;;;;;5070203;28;20029;-85
2020/12/17 04:11:12;;;;;;;1.90;0.90;;;;;;;;;;5070539;28;20024;-85
2020/12/17 04:13:39;;;;;;;1.23;0.70;;;;;;;;;;5070255;28;20017;-85
2020/12/17 04:16:05;;;;;;;1.80;1.65;;;;;;;;;;5069409;28;20043;-84
2020/12/17 04:18:31;;;;;;;1.35;1.20;;;;;;;;;;5070357;28;20029;-85
2020/12/17 04:20:57;;;;;;;1.20;0.90;;;;;;;;;;5070543;28;20025;-85
2020/12/17 04:23:23;;;;;;;0.70;0.60;;;;;;;;;;5051175;28;20036;-85
2020/12/17 04:25:50;;;;;;;1.13;1.02;;;;;;;;;;5069385;28;20111;-85
2020/12/17 04:28:16;;;;;;;2.00;1.48;;;;;;;;;;5069922;28;20051;-85
2020/12/17 04:30:42;;;;;;;1.85;1.20;;;;;;;;;;5070060;28;20376;-85
2020/12/17 04:33:08;;;;;;;1.20;1.10;;;;;;;;;;5069360;28;20104;-84
2020/12/17 04:35:34;;;;;;;1.73;1.35;;;;;;;;;;5067980;28;20044;-85
2020/12/17 04:38:00;;;;;;;1.73;0.82;;;;;;;;;;5070053;28;20040;-85
2020/12/17 04:40:26;;;;;;;1.02;0.80;;;;;;;;;;5069913;28;20035;-85
2020/12/17 04:42:52;;;;;;;1.45;1.35;;;;;;;;;;5069609;28;20068;-85
2020/12/17 04:45:20;;;;;;;0.82;0.80;;;;;;;;;;5068900;28;20070;-84
2020/12/17 04:47:47;;;;;;;1.83;0.95;;;;;;;;;;5069509;28;20054;-85
2020/12/17 04:50:14;;;;;;;1.23;0.47;;;;;;;;;;5070165;28;20028;-84
2020/12/17 04:52:41;;;;;;;2.42;1.13;;;;;;;;;;5069655;28;20032;-85
2020/12/17 04:55:08;;;;;;;1.75;1.23;;;;;;;;;;5069190;28;20063;-84
2020/12/17 04:57:35;;;;;;;1.23;1.17;;;;;;;;;;5069557;28;20039;-85
2020/12/17 05:00:01;;;;;;;1.05;1.00;;;;;;;;;;5069752;28;20029;-85
2020/12/17 05:02:27;;;;;;;1.45;1.35;;;;;;;;;;5069264;28;20048;-85
2020/12/17 05:04:54;;;;;;;1.10;0.90;;;;;;;;;;5067211;28;20032;-85
2020/12/17 05:07:22;;;;;;;1.52;1.17;;;;;;;;;;5069087;28;20662;-85
2020/12/17 05:09:48;;;;;;;0.68;0.60;;;;;;;;;;5069767;28;20025;-85
2020/12/17 05:12:14;;;;;;;2.20;1.33;;;;;;;;;;5068924;28;20033;-85
2020/12/17 05:14:41;;;;;;;3.55;1.15;;;;;;;;;;5068797;28;20017;-85
2020/12/17 05:17:07;;;;;;;0.80;0.80;;;;;;;;;;5068817;28;20081;-84
2020/12/17 05:19:34;;;;;;;1.52;1.30;;;;;;;;;;5069861;28;20034;-85
2020/12/17 05:22:01;;;;;;;1.17;0.70;;;;;;;;;;5068831;28;20036;-85
2020/12/17 05:24:27;;;;;;;1.58;0.90;;;;;;;;;;5068296;28;20017;-85
2020/12/17 05:26:54;;;;;;;1.35;1.25;;;;;;;;;;5068924;28;20510;-85
2020/12/17 05:29:21;;;;;;;1.33;0.73;;;;;;;;;;5069143;28;20107;-85
2020/12/17 05:31:47;;;;;;;1.80;1.10;;;;;;;;;;5069343;28;20129;-85
2020/12/17 05:34:14;;;;;;;1.98;1.50;;;;;;;;;;5068078;28;20024;-85
2020/12/17 05:36:41;;;;;;;1.75;0.88;;;;;;;;;;5067981;28;20541;-84
2020/12/17 05:39:07;;;;;;;1.30;1.20;;;;;;;;;;5069080;28;20078;-85
2020/12/17 05:41:34;;;;;;;0.52;0.52;;;;;;;;;;5068820;28;20044;-85
2020/12/17 05:44:10;;;;;;;1.73;1.10;;;;;;;;;;5068429;28;20410;-85
2020/12/17 05:46:38;;;;;;;1.40;1.10;;;;;;;;;;5068645;28;20028;-84
2020/12/17 05:49:20;;;;;;;1.25;1.15;;;;;;;;;;5069181;28;20449;-84
2020/12/17 05:51:46;;;;;;;0.73;0.65;;;;;;;;;;5069028;28;20107;-84
2020/12/17 05:54:25;;;;;;;1.42;0.95;;;;;;;;;;5068096;28;20033;-84
2020/12/17 05:57:06;;;;;;;0.60;0.52;;;;;;;;;;5068711;28;20025;-85
2020/12/17 05:59:32;;;;;;;2.20;1.20;;;;;;;;;;5068729;28;20037;-84
2020/12/17 06:01:58;;;;;;;1.23;0.85;;;;;;;;;;5068960;28;20055;-85
2020/12/17 06:04:24;;;;;;;0.90;0.90;;;;;;;;;;5067318;28;20037;-84
2020/12/17 06:06:50;;;;;;;0.68;0.68;;;;;;;;;;5050599;28;20402;-84
2020/12/17 06:09:21;;;;;;;2.70;0.80;;;;;;;;;;5068759;28;20044;-85
2020/12/17 06:11:47;;;;;;;0.77;0.77;;;;;;;;;;5068621;28;20035;-85
2020/12/17 06:14:15;;;;;;;1.80;0.75;;;;;;;;;;5068057;28;20025;-85
2020/12/17 06:16:42;;;;;;;0.73;0.60;;;;;;;;;;5068043;28;20031;-85
2020/12/17 06:19:11;;;;;;;1.55;0.75;;;;;;;;;;5070402;28;20103;-85
2020/12/17 06:21:40;;;;;;;1.02;0.90;;;;;;;;;;5072294;28;20506;-85
2020/12/17 06:24:06;;;;;;;1.45;0.75;;;;;;;;;;5053870;28;20155;-84
2020/12/17 06:26:38;;;;;;;1.33;0.80;;;;;;;;;;5071905;28;20494;-85
2020/12/17 06:29:09;;;;;;;2.05;1.05;;;;;;;;;;5072435;28;20056;-85
2020/12/17 06:31:42;;;;;;;1.27;0.73;;;;;;;;;;5072424;28;20421;-85
2020/12/17 06:34:08;;;;;;;1.08;0.90;;;;;;;;;;5071788;28;20033;-84
2020/12/17 06:36:44;;;;;;;0.75;0.60;;;;;;;;;;5070927;28;20060;-85
2020/12/17 06:39:10;;;;;;;1.77;1.15;;;;;;;;;;5072052;28;20032;-85
2020/12/17 06:41:37;;;;;;;1.05;0.63;;;;;;;;;;5072144;28;20405;-85
2020/12/17 06:44:22;;;;;;;1.95;1.38;;;;;;;;;;5070554;28;20028;-85
2020/12/17 06:46:53;;;;;;;2.42;1.65;;;;;;;;;;5070196;28;20028;-85
2020/12/17 06:49:23;;;;;;;1.83;1.42;;;;;;;;;;5058741;28;20021;-85
2020/12/17 06:52:00;;;;;;;0.85;0.82;;;;;;;;;;5060988;28;20075;-85
2020/12/17 06:54:26;;;;;;;2.72;1.15;;;;;;;;;;5054680;28;20025;-85
2020/12/17 06:57:06;;;;;;;1.25;1.15;;;;;;;;;;5053973;28;20104;-85
2020/12/17 06:59:32;;;;;;;4.68;0.82;;;;;;;;;;5057025;28;20756;-85
2020/12/17 07:01:58;;;;;;;1.85;1.20;;;;;;;;;;5069292;28;20390;-85
2020/12/17 07:04:35;;;;;;;2.15;1.20;;;;;;;;;;5066156;28;20044;-85
2020/12/17 07:07:16;;;;;;;2.97;1.40;;;;;;;;;;5064417;28;20032;-84
2020/12/17 07:09:43;;;;;;;5.68;2.20;;;;;;;;;;5046312;28;20048;-84
2020/12/17 07:12:12;;;;;;;3.70;3.00;;;;;;;;;;5062852;28;20021;-84
2020/12/17 07:14:39;;;;;;;5.30;2.53;;;;;;;;;;5066693;28;20725;-84
2020/12/17 07:17:07;;;;;;;5.25;2.72;;;;;;;;;;5066976;28;20033;-85
2020/12/17 07:19:44;;;;;;;3.60;2.28;;;;;;;;;;5067430;28;20021;-85
2020/12/17 07:22:15;;;;;;;4.63;2.72;;;;;;;;;;5064332;28;20498;-85
2020/12/17 07:24:50;;;;;;;4.50;2.38;;;;;;;;;;5054347;28;20027;-84
2020/12/17 07:27:18;;;;;;;3.53;2.30;;;;;;;;;;5064745;28;20510;-84
2020/12/17 07:29:50;;;;;;;5.93;3.10;;;;;;;;;;5061067;28;20047;-83
2020/12/17 07:32:23;;;;;;;9.77;8.82;;;;;;;;;;5047183;28;20021;-84
2020/12/17 07:34:49;;;;;;;16.40;11.38;;;;;;;;;;5048046;28;20028;-87
2020/12/17 07:37:34;;;;;;;9.63;8.68;;;;;;;;;;5062192;28;20043;-85
2020/12/17 07:40:03;;;;;;;4.45;4.00;;;;;;;;;;5059943;28;20548;-85
2020/12/17 07:42:31;;;;;;;5.78;4.53;;;;;;;;;;5055053;28;20040;-87
2020/12/17 07:44:57;;;;;;;5.82;3.75;;;;;;;;;;5038328;28;20029;-83
2020/12/17 07:47:24;;;;;;;5.28;4.03;;;;;;;;;;5064215;28;20021;-87
2020/12/17 07:49:50;;;;;;;5.93;3.15;;;;;;;;;;5055166;28;20815;-83
2020/12/17 07:52:32;;;;;;;9.32;3.80;;;;;;;;;;5060376;28;20036;-86
2020/12/17 07:54:58;;;;;;;3.53;3.22;;;;;;;;;;5058081;28;20021;-86
2020/12/17 07:57:24;;;;;;;5.85;2.95;;;;;;;;;;5059763;28;20352;-86
2020/12/17 07:59:50;;;;;;;2.47;1.95;;;;;;;;;;5059340;28;20028;-87
2020/12/17 08:02:17;;;;;;;2.90;2.58;;;;;;;;;;5058816;28;20051;-88
2020/12/17 08:04:56;;;;;;;2.33;2.08;;;;;;;;;;5062093;28;20031;-85
2020/12/17 08:07:23;;;;;;;3.15;2.90;;;;;;;;;;5067667;28;20166;-86
2020/12/17 08:09:58;;;;;;;5.30;3.15;;;;;;;;;;5047191;28;20035;-85
2020/12/17 08:12:24;;;;;;;5.32;2.78;;;;;;;;;;5069282;28;20482;-85
2020/12/17 08:14:51;;;;;;;8.38;2.75;;;;;;;;;;5063780;28;20084;-86
2020/12/17 08:17:38;;;;;;;8.73;3.55;;;;;;;;;;5060133;28;20033;-94
2020/12/17 08:20:04;;;;;;;3.42;2.58;;;;;;;;;;5033135;28;20040;-90
2020/12/17 08:22:31;;;;;;;6.57;2.25;;;;;;;;;;5050206;28;20570;-93
2020/12/17 08:25:06;;;;;;;6.50;1.58;;;;;;;;;;5036506;28;20017;-94
2020/12/17 08:30:36;;;;;;;4.65;2.33;;;;;;;;;;5071922;28;20115;-92
2020/12/17 08:33:02;;;;;;;4.78;1.85;;;;;;;;;;5053081;28;20056;-92
2020/12/17 08:35:29;;;;;;;2.15;1.90;;;;;;;;;;5070104;28;20087;-92
2020/12/17 08:37:57;;;;;;;3.30;1.60;;;;;;;;;;5053174;28;20028;-92
2020/12/17 08:40:27;;;;;;;2.28;2.08;;;;;;;;;;5052973;28;20051;-92
2020/12/17 08:42:58;;;;;;;4.50;2.00;;;;;;;;;;5056437;28;20496;-92
2020/12/17 08:45:26;;;;;;;2.55;1.90;;;;;;;;;;5071528;28;20037;-91
2020/12/17 08:47:56;;;;;;;10.85;2.58;;;;;;;;;;5053705;28;20047;-93
2020/12/17 08:50:22;;;;;;;3.67;2.50;;;;;;;;;;5067647;28;20020;-93
2020/12/17 08:52:49;;;;;;;4.57;2.30;;;;;;;;;;5053919;28;20082;-91
2020/12/17 08:55:15;;;;;;;1.73;1.60;;;;;;;;;;5052438;28;20017;-94
2020/12/17 08:57:41;;;;;;;3.03;2.00;;;;;;;;;;5053093;28;20135;-92
2020/12/17 09:00:19;;;;;;;3.83;2.85;;;;;;;;;;5052496;28;20024;-91
2020/12/17 09:02:46;;;;;;;3.40;1.88;;;;;;;;;;5063755;28;20043;-93
2020/12/17 09:05:13;;;;;;;2.65;2.28;;;;;;;;;;5052481;28;20390;-92
2020/12/17 09:07:41;;;;;;;3.88;2.28;;;;;;;;;;5055832;28;20024;-92
2020/12/17 09:10:13;;;;;;;2.00;1.60;;;;;;;;;;5056045;28;20036;-95
2020/12/17 09:12:40;;;;;;;3.28;1.73;;;;;;;;;;5057450;28;20099;-92
2020/12/17 09:15:10;;;;;;;2.10;1.90;;;;;;;;;;5057910;28;20056;-90
2020/12/17 09:17:39;;;;;;;3.10;2.03;;;;;;;;;;5054406;28;20543;-95
2020/12/17 09:20:19;;;;;;;3.53;2.75;;;;;;;;;;5057818;28;20111;-90
2020/12/17 09:22:45;;;;;;;2.70;2.42;;;;;;;;;;5059667;28;20098;-91
2020/12/17 09:25:15;;;;;;;5.75;3.50;;;;;;;;;;5070025;28;20047;-92
2020/12/17 09:27:43;;;;;;;2.72;2.38;;;;;;;;;;5072161;28;20052;-94
2020/12/17 09:30:22;;;;;;;6.45;3.35;;;;;;;;;;5057662;28;20044;-92
2020/12/17 09:32:55;;;;;;;4.28;2.17;;;;;;;;;;5070856;28;20039;-91
2020/12/17 09:35:22;;;;;;;2.60;1.98;;;;;;;;;;5068072;28;20041;-94
2020/12/17 09:38:17;;;;;;;5.05;2.97;;;;;;;;;;5055009;28;20043;-94
2020/12/17 09:40:45;;;;;;;4.50;2.95;;;;;;;;;;5051144;28;20035;-94
2020/12/17 09:43:15;;;;;;;6.43;3.65;;;;;;;;;;5054821;28;20146;-94
2020/12/17 09:45:41;;;;;;;3.42;3.13;;;;;;;;;;5067045;28;20032;-93
2020/12/17 09:48:33;;;;;;;3.40;2.85;;;;;;;;;;5070291;28;20047;-91
2020/12/17 09:51:03;;;;;;;3.55;2.60;;;;;;;;;;5065700;28;20557;-90
2020/12/17 09:53:32;;;;;;;4.97;2.63;;;;;;;;;;5068387;28;20534;-90
2020/12/17 09:55:59;;;;;;;4.78;3.10;;;;;;;;;;5074711;28;20028;-90
2020/12/17 09:58:25;;;;;;;5.10;2.75;;;;;;;;;;5075281;28;20114;-90
2020/12/17 10:00:51;;;;;;;3.03;2.75;;;;;;;;;;5077571;28;20029;-90
2020/12/17 10:03:17;;;;;;;4.75;3.05;;;;;;;;;;5071172;28;20060;-90
2020/12/17 10:05:43;;;;;;;5.80;4.07;;;;;;;;;;5060169;28;20017;-91
2020/12/17 10:08:09;;;;;;;3.70;2.97;;;;;;;;;;5072831;28;20059;-89
2020/12/17 10:10:36;;;;;;;5.88;3.13;;;;;;;;;;5059781;28;20543;-93
2020/12/17 10:13:02;;;;;;;6.05;3.53;;;;;;;;;;5058630;28;20054;-94
2020/12/17 10:15:29;;;;;;;3.90;2.78;;;;;;;;;;5057658;28;20025;-93
2020/12/17 10:17:55;;;;;;;5.53;3.35;;;;;;;;;;5055752;28;20074;-92
2020/12/17 10:20:22;;;;;;;5.55;3.15;;;;;;;;;;5073407;28;20053;-92
2020/12/17 10:22:52;;;;;;;3.95;2.67;;;;;;;;;;5056505;28;20040;-94
2020/12/17 10:25:21;;;;;;;3.45;3.05;;;;;;;;;;5054818;28;20020;-94
2020/12/17 10:28:02;;;;;;;4.45;4.05;;;;;;;;;;5072702;28;20056;-71
2020/12/17 10:30:28;;;;;;;5.78;4.15;;;;;;;;;;5081799;28;20092;-71
2020/12/17 10:32:56;;;;;;;4.95;3.80;;;;;;;;;;5088794;28;20509;-69
2020/12/17 10:35:22;;;;;;;3.63;2.67;;;;;;;;;;5086564;28;20126;-70
2020/12/17 10:37:48;;;;;;;5.47;3.45;;;;;;;;;;5088615;28;20074;-70
2020/12/17 10:40:15;;;;;;;4.93;3.85;;;;;;;;;;5087789;28;20028;-70
2020/12/17 10:42:41;;;;;;;4.03;3.63;;;;;;;;;;5089166;28;20063;-71
2020/12/17 10:45:08;;;;;;;6.45;4.00;;;;;;;;;;5087959;28;20103;-71
2020/12/17 10:47:35;;;;;;;3.55;2.90;;;;;;;;;;5089633;28;20157;-70
2020/12/17 10:50:01;;;;;;;4.88;4.35;;;;;;;;;;5083280;28;20032;-72
2020/12/17 10:52:27;;;;;;;7.53;4.97;;;;;;;;;;5077952;28;20025;-70
2020/12/17 10:54:53;;;;;;;4.18;3.38;;;;;;;;;;5082657;28;20024;-74
2020/12/17 10:57:20;;;;;;;5.43;3.33;;;;;;;;;;5086847;28;20032;-70
2020/12/17 10:59:47;;;;;;;9.30;4.95;;;;;;;;;;5089213;28;20500;-71
2020/12/17 11:02:13;;;;;;;7.28;4.10;;;;;;;;;;5087778;28;20028;-70
2020/12/17 11:04:40;;;;;;;7.05;4.07;;;;;;;;;;5086092;28;20035;-73
2020/12/17 11:07:06;;;;;;;7.25;3.63;;;;;;;;;;5085257;28;20425;-70
2020/12/17 11:09:32;;;;;;;9.70;5.03;;;;;;;;;;5078173;28;20378;-69
2020/12/17 11:11:58;;;;;;;9.45;4.10;;;;;;;;;;5078888;28;20687;-69
2020/12/17 11:14:24;;;;;;;10.23;4.97;;;;;;;;;;5076683;28;20028;-69
2020/12/17 11:16:51;;;;;;;6.40;5.18;;;;;;;;;;5078591;28;20474;-69
2020/12/17 11:19:17;;;;;;;10.18;5.40;;;;;;;;;;5080522;28;20047;-69
2020/12/17 11:21:43;;;;;;;10.20;6.30;;;;;;;;;;5073991;28;20035;-69
2020/12/17 11:24:10;;;;;;;8.07;5.53;;;;;;;;;;5077041;28;20538;-69
2020/12/17 11:26:41;;;;;;;9.38;5.57;;;;;;;;;;5079021;28;20063;-69
2020/12/17 11:29:07;;;;;;;17.35;7.30;;;;;;;;;;5073775;28;20467;-69
2020/12/17 11:31:33;;;;;;;10.63;6.75;;;;;;;;;;5078456;28;20028;-69
2020/12/17 11:34:00;;;;;;;16.58;7.43;;;;;;;;;;5086038;28;20035;-69
2020/12/17 11:36:26;;;;;;;8.63;5.57;;;;;;;;;;5085199;28;20036;-69
2020/12/17 11:38:52;;;;;;;9.13;5.97;;;;;;;;;;5081891;28;20042;-69
2020/12/17 11:41:18;;;;;;;11.20;5.03;;;;;;;;;;5086374;28;20028;-70
2020/12/17 11:43:44;;;;;;;12.43;5.68;;;;;;;;;;5087814;28;20028;-70
2020/12/17 11:46:10;;;;;;;9.65;5.78;;;;;;;;;;5087283;28;20020;-70
2020/12/17 11:48:36;;;;;;;8.10;5.88;;;;;;;;;;5087772;28;20034;-70
2020/12/17 11:51:02;;;;;;;9.60;6.88;;;;;;;;;;5088438;28;20109;-70
2020/12/17 11:53:28;;;;;;;7.75;4.93;;;;;;;;;;5086375;28;20027;-70
2020/12/17 11:55:54;;;;;;;8.68;5.32;;;;;;;;;;5086866;28;20032;-70
2020/12/17 11:58:20;;;;;;;7.57;4.88;;;;;;;;;;5084188;28;20440;-70
2020/12/17 12:00:47;;;;;;;9.10;5.05;;;;;;;;;;5082798;28;20669;-70
2020/12/17 12:03:13;;;;;;;8.88;5.85;;;;;;;;;;5085368;28;20036;-70
2020/12/17 12:05:39;;;;;;;6.60;4.25;;;;;;;;;;5087129;28;20462;-70
2020/12/17 12:08:05;;;;;;;6.88;5.55;;;;;;;;;;5087967;28;20440;-70
2020/12/17 12:10:31;;;;;;;16.05;6.72;;;;;;;;;;5087313;28;20032;-70
2020/12/17 12:12:57;;;;;;;10.15;5.85;;;;;;;;;;5088058;28;20085;-70
2020/12/17 12:15:23;;;;;;;8.13;6.13;;;;;;;;;;5086787;28;20543;-70
2020/12/17 12:17:49;;;;;;;6.28;5.32;;;;;;;;;;5086849;28;20028;-70
2020/12/17 12:20:15;;;;;;;7.05;5.05;;;;;;;;;;5086503;28;20466;-70
2020/12/17 12:22:41;;;;;;;7.70;6.63;;;;;;;;;;5087401;28;20036;-70
2020/12/17 12:25:08;;;;;;;8.73;6.18;;;;;;;;;;5087276;28;20070;-70
2020/12/17 12:27:34;;;;;;;9.02;5.47;;;;;;;;;;5085838;28;20086;-70
2020/12/17 12:30:00;;;;;;;8.75;5.72;;;;;;;;;;5083035;28;20059;-70
2020/12/17 12:32:26;;;;;;;8.07;5.78;;;;;;;;;;5078167;28;20106;-71
2020/12/17 12:34:52;;;;;;;9.32;5.80;;;;;;;;;;5078953;28;20043;-71
2020/12/17 12:37:18;;;;;;;7.75;5.10;;;;;;;;;;5077664;28;20077;-72
2020/12/17 12:39:44;;;;;;;9.82;4.95;;;;;;;;;;5075962;28;20101;-71
2020/12/17 12:42:10;;;;;;;8.32;4.60;;;;;;;;;;5080497;28;20040;-70
2020/12/17 12:44:36;;;;;;;6.57;4.85;;;;;;;;;;5084246;28;20543;-69
2020/12/17 12:47:02;;;;;;;7.90;6.05;;;;;;;;;;5081151;28;20592;-70
2020/12/17 12:49:28;;;;;;;8.35;5.40;;;;;;;;;;5076755;28;20476;-70
2020/12/17 12:51:54;;;;;;;4.90;3.72;;;;;;;;;;5077938;28;20797;-69
2020/12/17 12:54:21;;;;;;;6.30;4.70;;;;;;;;;;5075525;28;20502;-72
2020/12/17 12:56:47;;;;;;;7.25;4.60;;;;;;;;;;5079889;28;20413;-71
2020/12/17 12:59:13;;;;;;;6.80;4.90;;;;;;;;;;5074993;28;20039;-69
2020/12/17 13:01:40;;;;;;;5.32;4.20;;;;;;;;;;5076540;28;20729;-70
2020/12/17 13:04:06;;;;;;;6.45;4.15;;;;;;;;;;5066007;28;20050;-69
2020/12/17 13:06:33;;;;;;;7.60;5.00;;;;;;;;;;5070879;28;20032;-69
2020/12/17 13:09:02;;;;;;;5.95;4.28;;;;;;;;;;5079801;28;20050;-73
2020/12/17 13:11:29;;;;;;;5.28;4.75;;;;;;;;;;5084530;28;20089;-69
2020/12/17 13:13:55;;;;;;;6.57;4.28;;;;;;;;;;5083779;28;20036;-69
2020/12/17 13:16:21;;;;;;;5.20;3.92;;;;;;;;;;5077563;28;20024;-70
2020/12/17 13:18:48;;;;;;;4.72;3.53;;;;;;;;;;5074638;28;20028;-69
2020/12/17 13:21:17;;;;;;;4.25;3.85;;;;;;;;;;5072387;28;20506;-72
2020/12/17 13:23:45;;;;;;;6.07;3.70;;;;;;;;;;5074201;28;20063;-70
2020/12/17 13:26:11;;;;;;;4.15;3.30;;;;;;;;;;5073466;28;20059;-69
2020/12/17 13:28:37;;;;;;;5.22;3.35;;;;;;;;;;5068288;28;20071;-69
2020/12/17 13:31:03;;;;;;;5.22;2.78;;;;;;;;;;5072540;28;20559;-68
2020/12/17 13:33:30;;;;;;;3.33;3.00;;;;;;;;;;5075108;28;20051;-69
2020/12/17 13:35:56;;;;;;;3.25;3.05;;;;;;;;;;5076297;28;20050;-69
2020/12/17 13:38:22;;;;;;;7.05;3.65;;;;;;;;;;5076662;28;20708;-69
2020/12/17 13:40:48;;;;;;;3.35;2.33;;;;;;;;;;5075603;28;20110;-70
2020/12/17 13:43:14;;;;;;;3.85;2.78;;;;;;;;;;5072574;28;20079;-70
2020/12/17 13:45:40;;;;;;;5.95;2.67;;;;;;;;;;5077745;28;20028;-70
2020/12/17 13:48:06;;;;;;;6.07;2.95;;;;;;;;;;5075344;28;20182;-70
2020/12/17 13:50:33;;;;;;;5.53;2.33;;;;;;;;;;5076437;28;20023;-70
2020/12/17 13:52:59;;;;;;;3.65;2.60;;;;;;;;;;5073912;28;20054;-69
2020/12/17 13:55:26;;;;;;;2.85;2.65;;;;;;;;;;5074543;28;20032;-72
2020/12/17 13:57:52;;;;;;;2.80;2.47;;;;;;;;;;5070290;28;20074;-70
2020/12/17 14:00:18;;;;;;;3.88;2.53;;;;;;;;;;5065898;28;20104;-70
2020/12/17 14:02:44;;;;;;;10.43;4.13;;;;;;;;;;5072765;28;20036;-73
2020/12/17 14:05:10;;;;;;;5.07;2.67;;;;;;;;;;5075421;28;20070;-71
2020/12/17 14:07:36;;;;;;;9.80;3.45;;;;;;;;;;5077278;28;20642;-71
2020/12/17 14:10:02;;;;;;;5.70;2.75;;;;;;;;;;5074541;28;20478;-71
2020/12/17 14:12:29;;;;;;;3.10;2.03;;;;;;;;;;5074903;28;20123;-71
2020/12/17 14:14:55;;;;;;;3.45;2.30;;;;;;;;;;5076105;28;20024;-71
2020/12/17 14:17:21;;;;;;;3.60;2.50;;;;;;;;;;5074056;28;20117;-71
2020/12/17 14:19:47;;;;;;;2.40;1.70;;;;;;;;;;5074309;28;20027;-71
2020/12/17 14:22:13;;;;;;;6.82;3.40;;;;;;;;;;5074677;28;20063;-71
2020/12/17 14:24:40;;;;;;;2.08;1.63;;;;;;;;;;5073785;28;20039;-72
2020/12/17 14:27:06;;;;;;;2.92;2.25;;;;;;;;;;5075464;28;20048;-71
2020/12/17 14:29:32;;;;;;;4.72;2.55;;;;;;;;;;5074497;28;20539;-71
2020/12/17 14:32:01;;;;;;;5.85;2.00;;;;;;;;;;5076547;28;20108;-71
2020/12/17 14:34:27;;;;;;;2.92;2.22;;;;;;;;;;5079908;28;20081;-72
2020/12/17 14:36:56;;;;;;;4.95;2.53;;;;;;;;;;5082712;28;20032;-73
2020/12/17 14:39:22;;;;;;;5.10;2.22;;;;;;;;;;5082481;28;20054;-71
2020/12/17 14:41:48;;;;;;;2.55;2.10;;;;;;;;;;5087269;28;20111;-72
2020/12/17 14:44:14;;;;;;;2.65;2.17;;;;;;;;;;5085884;28;20024;-73
2020/12/17 14:46:40;;;;;;;3.60;3.13;;;;;;;;;;5083965;28;20118;-71
2020/12/17 14:49:06;;;;;;;2.65;1.90;;;;;;;;;;5086413;28;20036;-71